createdAt,value
2022-12-26T16:35:41.980Z,95731.75
2022-12-26T16:38:14.145Z,95734.41
2022-12-26T16:40:44.097Z,95732.81
2022-12-26T16:43:25.433Z,95724.59
2022-12-26T16:45:54.800Z,95726.44
2022-12-26T16:48:24.348Z,95725.63
2022-12-26T16:50:55.584Z,95725.94
2022-12-26T16:53:25.742Z,95724.91
2022-12-26T16:55:58.166Z,95727.31
2022-12-26T16:58:28.688Z,95732.38
2022-12-26T17:01:08.696Z,95724.13
2022-12-26T17:03:49.432Z,95741.97
2022-12-26T17:06:21.018Z,95760.88
2022-12-26T17:08:50.752Z,95799.03
2022-12-26T17:11:19.744Z,95778.88
2022-12-26T17:13:51.181Z,95778.00
2022-12-26T17:16:19.991Z,95775.16
2022-12-26T17:18:49.611Z,95764.63
2022-12-26T17:21:25.156Z,95763.50
2022-12-26T17:24:18.197Z,95782.34
2022-12-26T17:26:52.635Z,95786.03
2022-12-26T17:29:37.907Z,95794.00
2022-12-26T17:32:08.933Z,95798.84
2022-12-26T17:34:39.241Z,95800.47
2022-12-26T17:37:19.391Z,95795.94
2022-12-26T17:39:54.940Z,95795.63
2022-12-26T17:42:25.922Z,95775.41
2022-12-26T17:44:54.624Z,95757.06
2022-12-26T17:47:29.282Z,95753.38
2022-12-26T17:49:58.062Z,95738.16
2022-12-26T17:52:30.188Z,95736.78
2022-12-26T17:54:59.408Z,95737.59
2022-12-26T17:57:29.311Z,95740.75
2022-12-26T17:59:58.054Z,95743.66
2022-12-26T18:02:26.834Z,95750.25
2022-12-26T18:04:56.114Z,95735.09
2022-12-26T18:07:32.212Z,95738.81
2022-12-26T18:10:02.661Z,95735.81
2022-12-26T18:12:31.380Z,95741.13
2022-12-26T18:15:02.320Z,95748.28
2022-12-26T18:17:35.357Z,95758.13
2022-12-26T18:20:04.262Z,95761.84
2022-12-26T18:22:32.954Z,95773.28
2022-12-26T18:25:03.047Z,95776.97
2022-12-26T18:27:35.049Z,95782.28
2022-12-26T18:30:03.717Z,95793.72
2022-12-26T18:32:33.091Z,95790.50
2022-12-26T18:35:01.744Z,95777.69
2022-12-26T18:37:31.003Z,95774.22
2022-12-26T18:39:59.694Z,95760.16
2022-12-26T18:42:29.917Z,95764.66
2022-12-26T18:44:58.825Z,95760.38
2022-12-26T18:47:27.803Z,95760.66
2022-12-26T18:49:56.432Z,95756.13
2022-12-26T18:52:25.055Z,95748.16
2022-12-26T18:54:53.945Z,95729.56
2022-12-26T18:57:22.848Z,95721.28
2022-12-26T18:59:52.965Z,95749.69
2022-12-26T19:02:22.000Z,95750.97
2022-12-26T19:04:51.117Z,95764.00
2022-12-26T19:07:20.523Z,95772.78
2022-12-26T19:09:51.513Z,95789.53
2022-12-26T19:12:20.222Z,95791.63
2022-12-26T19:14:48.864Z,95797.75
2022-12-26T19:17:18.942Z,95808.34
2022-12-26T19:19:47.538Z,95810.22
2022-12-26T19:22:16.246Z,95813.91
2022-12-26T19:24:44.908Z,95798.22
2022-12-26T19:27:13.549Z,95819.44
2022-12-26T19:29:42.568Z,95812.53
2022-12-26T19:32:11.210Z,95820.25
2022-12-26T19:34:41.275Z,95814.94
2022-12-26T19:37:09.992Z,95815.75
2022-12-26T19:39:38.677Z,95821.06
2022-12-26T19:42:07.400Z,95826.16
2022-12-26T19:44:36.114Z,95829.94
2022-12-26T19:47:12.759Z,95866.09
2022-12-26T19:49:43.203Z,95870.31
2022-12-26T19:52:12.393Z,95867.66
2022-12-26T19:54:41.064Z,95880.53
2022-12-26T19:57:09.721Z,95888.28
2022-12-26T19:59:38.315Z,95883.59
2022-12-26T20:02:07.079Z,95885.28
2022-12-26T20:04:35.863Z,95877.81
2022-12-26T20:07:06.232Z,95881.75
2022-12-26T20:09:35.179Z,95868.69
2022-12-26T20:12:04.058Z,95841.75
2022-12-26T20:14:33.094Z,95820.78
2022-12-26T20:17:07.173Z,95817.78
2022-12-26T20:19:36.579Z,95794.06
2022-12-26T20:22:07.027Z,95765.00
2022-12-26T20:24:35.991Z,95801.81
2022-12-26T20:27:04.801Z,95827.53
2022-12-26T20:29:33.429Z,95844.47
2022-12-26T20:32:02.132Z,95856.22
2022-12-26T20:34:30.760Z,95862.25
2022-12-26T20:36:59.409Z,95868.13
2022-12-26T20:39:29.483Z,95865.47
2022-12-26T20:41:58.145Z,95866.81
2022-12-26T20:44:26.808Z,95861.78
2022-12-26T20:46:55.504Z,95880.09
2022-12-26T20:49:24.419Z,95884.59
2022-12-26T20:51:53.073Z,95881.16
2022-12-26T20:54:22.662Z,95880.34
2022-12-26T20:56:52.776Z,95883.47
2022-12-26T20:59:21.690Z,95893.84
2022-12-26T21:01:50.525Z,95885.06
2022-12-26T21:04:20.435Z,95896.50
2022-12-26T21:06:50.667Z,95900.19
2022-12-26T21:09:19.440Z,95902.38
2022-12-26T21:11:48.106Z,95902.91
2022-12-26T21:14:19.630Z,95910.66
2022-12-26T21:16:49.374Z,95905.13
2022-12-26T21:19:18.274Z,95909.72
2022-12-26T21:21:47.782Z,95918.00
2022-12-26T21:24:17.649Z,95927.69
2022-12-26T21:26:46.315Z,95924.56
2022-12-26T21:29:20.616Z,95931.84
2022-12-26T21:31:50.713Z,95938.28
2022-12-26T21:34:20.569Z,95937.81
2022-12-26T21:37:03.108Z,95946.59
2022-12-26T21:39:32.077Z,95951.66
2022-12-26T21:42:00.809Z,95942.66
2022-12-26T21:44:29.767Z,95942.66
2022-12-26T21:47:00.155Z,95954.91
2022-12-26T21:49:28.786Z,95954.09
2022-12-26T21:51:57.536Z,95950.38
2022-12-26T21:54:48.788Z,95951.97
2022-12-26T21:57:18.222Z,95966.88
2022-12-26T21:59:59.915Z,95957.28
2022-12-26T22:02:48.940Z,95955.34
2022-12-26T22:05:18.032Z,95970.69
2022-12-26T22:07:46.682Z,95975.91
2022-12-26T22:10:35.832Z,95981.22
2022-12-26T22:13:03.721Z,95976.94
2022-12-26T22:15:49.703Z,95980.88
2022-12-26T22:18:19.837Z,95975.56
2022-12-26T22:20:48.649Z,95980.28
2022-12-26T22:23:17.900Z,95983.41
2022-12-26T22:25:56.970Z,95981.00
2022-12-26T22:28:30.391Z,95994.81
2022-12-26T22:30:59.990Z,95994.81
2022-12-26T22:33:30.391Z,95991.63
2022-12-26T22:36:05.936Z,95999.00
2022-12-26T22:38:34.839Z,95991.50
2022-12-26T22:41:03.791Z,96016.41
2022-12-26T22:43:33.600Z,96023.78
2022-12-26T22:46:02.265Z,96033.13
2022-12-26T22:48:32.395Z,96038.44
2022-12-26T22:51:01.325Z,96035.06
2022-12-26T22:53:30.556Z,96044.66
2022-12-26T22:55:59.896Z,96044.94
2022-12-26T22:58:28.554Z,96042.56
2022-12-26T23:00:57.229Z,96050.72
2022-12-26T23:03:26.324Z,96052.66
2022-12-26T23:05:57.199Z,96055.56
2022-12-26T23:08:26.948Z,96059.22
2022-12-26T23:10:56.089Z,96056.91
2022-12-26T23:13:26.384Z,96069.84
2022-12-26T23:15:57.631Z,96070.94
2022-12-26T23:18:49.366Z,96075.47
2022-12-26T23:21:45.734Z,96078.09
2022-12-26T23:24:16.632Z,96080.97
2022-12-26T23:26:46.712Z,96082.88
2022-12-26T23:29:37.939Z,96087.16
2022-12-26T23:32:07.117Z,96088.56
2022-12-26T23:34:36.074Z,96094.31
2022-12-26T23:37:06.193Z,96108.88
2022-12-26T23:39:34.767Z,96129.97
2022-12-26T23:42:03.392Z,96130.03
2022-12-26T23:44:32.668Z,96138.13
2022-12-26T23:47:01.327Z,96138.44
2022-12-26T23:49:30.076Z,96138.91
2022-12-26T23:51:58.678Z,96143.03
2022-12-26T23:54:29.051Z,96147.66
2022-12-26T23:56:57.684Z,96144.34
2022-12-26T23:59:26.654Z,96152.28
